Terminal Aerodrome Forecast
Issued by NWS

Home | Current Version | Previous Version | Graphics & Text | Print | Product List | Glossary On
Versions: 1 2 3 4 5 6 7 8 9 10 11 12 13 14 15 16 17
000
FTUS43 KICT 202300
TAFSLN
TAF
KSLN 202320Z 2100/2124 17015G22KT P6SM SKC
     FM210200 17014KT P6SM SCT120
     FM211500 20017G25KT P6SM SCT120=

USA.gov is the U.S. government's official web portal to all federal, state and local government web resources and services.